Turner Center, Maine
Current Conditions -  °F | °C
As of 1:15 PM on Friday 24 Oct 2014 (Local Time) from KLEW Reporting Station
Overcast Overcast  
Wind Chill: 50°   Ceiling: 2200
Heat Index: 50°   Visibility: 10mi
Dew Point: 45°   Wind: 10mph
Humidity: 82%   Direction: 340°NNW
Pressure: 29.67"   Gusts: NA
Location:  44.27°N, 70.22°W
Report Text: KLEW 241715Z AUTO 34009KT 10SM BKN022 OVC026 10/07 A2967 RMK AO1
Loading
Personal Weather Stations






























Interactive Weather Map New forecast layout! Learn more

10-Day Weather Forecast

Advertisements
Track Severe Weather on mobile